Time;durP1;ratioP1;P1;durP2;ratioP2;P2;SDS_P1;SDS_P2;PMS_P1;PMS_P2;Temp;Humidity;BMP_temperature;BMP_pressure;BME280_temperature;BME280_humidity;BME280_pressure;Samples;Min_cycle;Max_cycle;Signal;HPM_P1;HPM_P2
2022/03/02 00:00:44;;;;;;;40.40;28.17;;;;;;;4.06;93.52;102459.09;5075045;28;20407;-70
2022/03/02 00:03:10;;;;;;;42.22;27.98;;;;;;;4.04;91.69;102461.63;5074847;28;20108;-72
2022/03/02 00:05:36;;;;;;;42.22;27.85;;;;;;;3.99;91.01;102455.22;5075219;28;20107;-72
2022/03/02 00:08:03;;;;;;;41.97;28.92;;;;;;;3.98;91.84;102458.69;5074754;28;20082;-71
2022/03/02 00:10:29;;;;;;;40.35;28.02;;;;;;;3.93;91.24;102455.81;5070669;28;20558;-71
2022/03/02 00:12:54;;;;;;;39.42;27.48;;;;;;;3.82;92.95;102462.13;5074690;28;20115;-68
2022/03/02 00:15:19;;;;;;;40.20;27.80;;;;;;;3.80;93.30;102459.44;5074561;28;20106;-68
2022/03/02 00:17:45;;;;;;;42.03;28.42;;;;;;;3.75;92.94;102466.09;5074785;28;20071;-68
2022/03/02 00:20:12;;;;;;;40.15;28.25;;;;;;;3.63;94.24;102465.41;5074515;28;20344;-68
2022/03/02 00:22:39;;;;;;;41.70;28.23;;;;;;;3.62;93.55;102469.69;5074703;28;20033;-68
2022/03/02 00:25:05;;;;;;;41.25;28.35;;;;;;;3.57;93.16;102470.25;5074297;28;20021;-68
2022/03/02 00:27:30;;;;;;;41.15;28.45;;;;;;;3.47;94.73;102467.09;5074499;28;20114;-68
2022/03/02 00:29:55;;;;;;;40.65;28.00;;;;;;;3.47;95.26;102466.19;5074196;28;20039;-68
2022/03/02 00:32:21;;;;;;;41.05;27.60;;;;;;;3.41;93.57;102466.75;5074086;28;20020;-70
2022/03/02 00:34:46;;;;;;;40.78;27.63;;;;;;;3.37;94.34;102459.50;5074326;28;20107;-69
2022/03/02 00:37:12;;;;;;;41.10;28.00;;;;;;;3.36;95.05;102464.66;5074166;28;20071;-69
2022/03/02 00:39:38;;;;;;;40.03;27.02;;;;;;;3.27;93.76;102460.66;5074724;28;20402;-68
2022/03/02 00:42:06;;;;;;;41.13;27.85;;;;;;;3.26;94.99;102465.81;5074266;28;20021;-69
2022/03/02 00:44:31;;;;;;;40.08;28.30;;;;;;;3.17;92.86;102457.44;5074139;28;20035;-68
2022/03/02 00:46:57;;;;;;;42.50;29.00;;;;;;;3.18;93.80;102465.34;5074156;28;20028;-68
2022/03/02 00:49:26;;;;;;;40.08;27.30;;;;;;;3.21;94.31;102447.25;5073944;28;20409;-69
2022/03/02 00:51:53;;;;;;;42.10;28.17;;;;;;;3.17;92.57;102452.19;5073857;28;20037;-68
2022/03/02 00:54:18;;;;;;;41.58;28.23;;;;;;;3.13;93.13;102462.47;5073767;28;20044;-68
2022/03/02 00:56:43;;;;;;;40.63;27.75;;;;;;;3.17;94.08;102449.59;5073650;28;20032;-68
2022/03/02 00:59:09;;;;;;;41.42;27.70;;;;;;;3.12;91.67;102452.81;5073086;28;20435;-68
2022/03/02 01:01:34;;;;;;;40.92;28.17;;;;;;;3.10;91.46;102451.84;5074053;28;20025;-68
2022/03/02 01:03:59;;;;;;;41.95;28.95;;;;;;;3.11;91.68;102452.72;5073749;28;20437;-69
2022/03/02 01:06:25;;;;;;;41.70;28.10;;;;;;;3.08;90.75;102445.59;5073657;28;20029;-69
2022/03/02 01:08:50;;;;;;;41.25;29.92;;;;;;;3.03;91.52;102441.81;5073624;28;20047;-68
2022/03/02 01:11:15;;;;;;;41.63;28.65;;;;;;;3.01;91.74;102438.19;5073521;28;20027;-71
2022/03/02 01:13:41;;;;;;;41.70;28.98;;;;;;;2.95;91.32;102427.38;5073202;28;20029;-68
2022/03/02 01:16:06;;;;;;;42.60;28.88;;;;;;;2.96;92.76;102431.81;5073471;28;20029;-68
2022/03/02 01:18:32;;;;;;;42.28;28.35;;;;;;;2.94;92.49;102430.78;5073487;28;20509;-68
2022/03/02 01:20:59;;;;;;;42.13;28.58;;;;;;;2.91;91.34;102430.59;5073467;28;20031;-68
2022/03/02 01:23:25;;;;;;;42.05;28.20;;;;;;;2.86;91.62;102426.84;5073534;28;20356;-68
2022/03/02 01:25:50;;;;;;;40.47;27.80;;;;;;;2.81;92.40;102421.34;5073435;28;20023;-69
2022/03/02 01:28:16;;;;;;;39.65;27.08;;;;;;;2.81;92.71;102421.34;5073351;28;20471;-68
2022/03/02 01:30:41;;;;;;;40.55;26.92;;;;;;;2.76;92.03;102423.63;5073044;28;20029;-68
2022/03/02 01:33:06;;;;;;;41.08;27.50;;;;;;;2.77;93.27;102421.94;5073106;28;20048;-68
2022/03/02 01:35:32;;;;;;;41.10;27.60;;;;;;;2.70;93.64;102412.81;5073408;28;20027;-68
2022/03/02 01:37:57;;;;;;;40.80;27.90;;;;;;;2.67;92.93;102410.03;5073011;28;20528;-68
2022/03/02 01:40:23;;;;;;;40.08;28.10;;;;;;;2.64;93.47;102419.41;5072922;28;20056;-69
2022/03/02 01:42:48;;;;;;;40.88;28.20;;;;;;;2.53;92.91;102413.50;5073425;28;20075;-69
2022/03/02 01:45:14;;;;;;;41.17;28.20;;;;;;;2.51;93.11;102415.13;5072845;28;20380;-68
2022/03/02 01:47:40;;;;;;;41.03;27.80;;;;;;;2.51;95.44;102409.91;5073139;28;20107;-68
2022/03/02 01:50:09;;;;;;;40.95;27.80;;;;;;;2.51;93.59;102407.28;5072793;28;20112;-68
2022/03/02 01:52:35;;;;;;;40.50;27.63;;;;;;;2.50;92.33;102402.84;5072565;28;20120;-69
2022/03/02 01:55:00;;;;;;;41.03;27.77;;;;;;;2.46;91.18;102400.84;5072797;28;20103;-69
2022/03/02 01:57:26;;;;;;;40.63;27.75;;;;;;;2.45;90.10;102402.56;5072940;28;20032;-68
2022/03/02 01:59:52;;;;;;;39.67;27.55;;;;;;;2.42;90.33;102398.06;5072449;28;20081;-68
2022/03/02 02:02:17;;;;;;;40.30;27.77;;;;;;;2.39;89.83;102400.47;5054736;28;20123;-68
2022/03/02 02:04:42;;;;;;;39.10;26.13;;;;;;;2.46;90.91;102403.47;5072769;28;20017;-68
2022/03/02 02:07:08;;;;;;;39.70;26.80;;;;;;;2.42;89.70;102403.28;5072614;28;20383;-68
2022/03/02 02:09:33;;;;;;;40.53;26.95;;;;;;;2.43;90.11;102397.25;5072736;28;20043;-68
2022/03/02 02:11:59;;;;;;;42.03;27.80;;;;;;;2.45;91.81;102389.53;5072790;28;20027;-68
2022/03/02 02:14:24;;;;;;;39.22;26.75;;;;;;;2.41;90.36;102390.13;5072523;28;20034;-68
2022/03/02 02:16:50;;;;;;;39.88;27.27;;;;;;;2.42;90.03;102386.72;5072887;28;20025;-68
2022/03/02 02:19:15;;;;;;;39.88;27.00;;;;;;;2.48;90.83;102389.72;5072486;28;20112;-68
2022/03/02 02:21:40;;;;;;;39.28;26.38;;;;;;;2.47;88.86;102389.63;5072797;28;20027;-68
2022/03/02 02:24:06;;;;;;;41.28;27.50;;;;;;;2.50;89.58;102384.59;5072486;28;20032;-69
2022/03/02 02:26:31;;;;;;;39.40;26.73;;;;;;;2.58;91.08;102388.56;5072495;28;20016;-69
2022/03/02 02:28:58;;;;;;;38.97;26.90;;;;;;;2.59;90.94;102377.31;5072032;28;20086;-68
2022/03/02 02:31:24;;;;;;;41.15;26.80;;;;;;;2.63;91.05;102379.31;5072451;28;20414;-68
2022/03/02 02:33:51;;;;;;;39.55;26.58;;;;;;;2.64;89.51;102377.63;5072398;28;20021;-68
2022/03/02 02:36:16;;;;;;;40.50;26.20;;;;;;;2.64;89.30;102370.66;5072404;28;20033;-68
2022/03/02 02:38:42;;;;;;;40.05;25.80;;;;;;;2.66;88.41;102374.25;5072520;28;20090;-68
2022/03/02 02:41:07;;;;;;;39.45;26.63;;;;;;;2.66;88.29;102375.97;5072300;28;20107;-68
2022/03/02 02:43:33;;;;;;;37.67;25.60;;;;;;;2.68;88.16;102371.75;5072250;28;20036;-68
2022/03/02 02:45:59;;;;;;;39.97;26.52;;;;;;;2.65;88.08;102367.25;5072275;28;20078;-68
2022/03/02 02:48:24;;;;;;;38.38;25.63;;;;;;;2.66;87.88;102363.81;5072103;28;20044;-68
2022/03/02 02:50:49;;;;;;;38.45;25.35;;;;;;;2.67;87.91;102360.41;5072371;28;20028;-68
2022/03/02 02:53:16;;;;;;;39.22;25.13;;;;;;;2.63;87.28;102358.41;5072154;28;20387;-68
2022/03/02 02:55:42;;;;;;;38.38;25.20;;;;;;;2.64;87.61;102359.34;5072494;28;20101;-68
2022/03/02 02:58:09;;;;;;;38.88;24.90;;;;;;;2.58;85.78;102360.75;5072179;28;20413;-69
2022/03/02 03:00:39;;;;;;;39.13;25.30;;;;;;;2.58;86.34;102368.59;5072568;28;20024;-69
2022/03/02 03:03:04;;;;;;;39.03;25.05;;;;;;;2.58;85.71;102367.69;5068514;28;20419;-68
2022/03/02 03:05:31;;;;;;;38.60;25.70;;;;;;;2.58;85.24;102367.69;5067982;28;20123;-68
2022/03/02 03:07:59;;;;;;;38.75;25.75;;;;;;;2.56;85.13;102366.69;5072116;28;20056;-69
2022/03/02 03:10:25;;;;;;;38.00;24.98;;;;;;;2.57;84.76;102368.50;5072076;28;20036;-68
2022/03/02 03:12:51;;;;;;;37.28;24.25;;;;;;;2.57;84.64;102366.78;5072230;28;20111;-68
2022/03/02 03:15:19;;;;;;;37.67;24.33;;;;;;;2.56;84.35;102370.22;5072395;28;20074;-68
2022/03/02 03:17:46;;;;;;;39.92;24.80;;;;;;;2.51;83.66;102362.91;5072110;28;20052;-68
2022/03/02 03:20:13;;;;;;;37.85;24.60;;;;;;;2.51;83.47;102362.91;5071994;28;20032;-68
2022/03/02 03:22:38;;;;;;;38.10;23.77;;;;;;;2.51;82.49;102361.19;5074052;28;20052;-68
2022/03/02 03:25:07;;;;;;;39.33;25.38;;;;;;;2.54;83.49;102365.69;5075488;28;20075;-68
2022/03/02 03:27:33;;;;;;;39.42;23.83;;;;;;;2.54;85.06;102350.91;5071780;28;20060;-68
2022/03/02 03:29:59;;;;;;;39.65;24.58;;;;;;;2.51;84.22;102357.69;5075583;28;20028;-68
2022/03/02 03:32:24;;;;;;;38.83;24.88;;;;;;;2.49;83.10;102359.28;5075568;28;20353;-68
2022/03/02 03:34:49;;;;;;;37.92;24.55;;;;;;;2.47;83.24;102361.78;5075412;28;20396;-68
2022/03/02 03:37:15;;;;;;;38.55;24.90;;;;;;;2.48;84.50;102362.72;5075560;28;20104;-68
2022/03/02 03:39:42;;;;;;;37.78;24.50;;;;;;;2.41;84.62;102351.88;5075313;28;20525;-68
2022/03/02 03:42:08;;;;;;;36.17;23.75;;;;;;;2.40;84.67;102355.31;5075163;28;20499;-68
2022/03/02 03:44:33;;;;;;;38.25;24.67;;;;;;;2.40;85.91;102355.31;5075392;28;20062;-68
2022/03/02 03:46:59;;;;;;;36.92;24.38;;;;;;;2.37;85.44;102349.88;5075269;28;20017;-68
2022/03/02 03:49:24;;;;;;;38.00;25.02;;;;;;;2.41;86.75;102357.09;5075164;28;20498;-68
2022/03/02 03:51:49;;;;;;;38.67;25.40;;;;;;;2.33;86.02;102352.19;5072557;28;20025;-68
2022/03/02 03:54:16;;;;;;;37.95;24.98;;;;;;;2.23;85.48;102356.88;5074969;28;20135;-68
2022/03/02 03:56:41;;;;;;;37.53;24.77;;;;;;;2.21;85.10;102360.16;5075198;28;20468;-68
2022/03/02 03:59:07;;;;;;;38.00;24.83;;;;;;;2.24;85.85;102350.84;5074960;28;20036;-68
2022/03/02 04:01:33;;;;;;;38.13;24.73;;;;;;;2.26;86.14;102351.84;5074877;28;20017;-68
2022/03/02 04:03:59;;;;;;;38.85;24.42;;;;;;;2.25;86.10;102339.56;5074962;28;20407;-68
2022/03/02 04:06:24;;;;;;;38.70;24.58;;;;;;;2.18;85.01;102345.22;5074818;28;20394;-70
2022/03/02 04:08:50;;;;;;;37.50;24.50;;;;;;;2.13;85.43;102337.94;5074801;28;20060;-68
2022/03/02 04:11:15;;;;;;;37.30;23.95;;;;;;;2.08;85.16;102335.00;5074977;28;20048;-68
2022/03/02 04:13:40;;;;;;;36.45;23.30;;;;;;;2.10;85.43;102336.03;5074769;28;20085;-68
2022/03/02 04:16:06;;;;;;;37.70;24.35;;;;;;;2.03;84.97;102333.84;5074529;28;20510;-69
2022/03/02 04:18:32;;;;;;;38.08;24.20;;;;;;;1.97;84.38;102341.28;5074714;28;20043;-68
2022/03/02 04:21:01;;;;;;;38.63;24.20;;;;;;;1.99;85.79;102331.84;5074617;28;20536;-68
2022/03/02 04:23:27;;;;;;;37.88;24.70;;;;;;;1.96;86.10;102329.94;5074518;28;20031;-68
2022/03/02 04:25:53;;;;;;;37.88;24.65;;;;;;;1.91;86.18;102326.16;5074648;28;20025;-68
2022/03/02 04:28:19;;;;;;;38.08;24.73;;;;;;;1.92;86.67;102327.94;5074358;28;20111;-68
2022/03/02 04:30:44;;;;;;;39.35;23.95;;;;;;;1.90;nan;102322.63;5074530;28;20119;-68
2022/03/02 04:33:10;;;;;;;38.15;24.83;;;;;;;1.88;88.65;102318.13;5073743;28;20025;-69
2022/03/02 04:35:35;;;;;;;36.20;24.00;;;;;;;1.87;89.72;102319.81;5073981;28;20024;-69
2022/03/02 04:38:02;;;;;;;37.03;24.33;;;;;;;1.85;91.42;102320.53;5069991;28;20032;-68
2022/03/02 04:40:27;;;;;;;37.33;24.55;;;;;;;1.78;90.04;102316.63;5074231;28;20051;-69
2022/03/02 04:42:54;;;;;;;37.53;23.50;;;;;;;1.77;91.19;102317.44;5074172;28;20478;-69
2022/03/02 04:45:21;;;;;;;38.28;25.02;;;;;;;1.72;90.86;102314.53;5074460;28;20035;-68
2022/03/02 04:47:47;;;;;;;39.22;24.20;;;;;;;1.70;89.36;102310.03;5074012;28;20498;-68
2022/03/02 04:50:12;;;;;;;39.42;24.42;;;;;;;1.65;87.69;102307.13;5073770;28;20032;-68
2022/03/02 04:52:38;;;;;;;36.58;23.85;;;;;;;1.65;87.48;102306.25;5073851;28;20028;-68
2022/03/02 04:55:07;;;;;;;36.58;24.05;;;;;;;1.66;85.08;102305.41;5073862;28;20027;-68
2022/03/02 04:57:35;;;;;;;36.03;23.00;;;;;;;1.69;83.45;102297.78;5069841;28;20033;-68
2022/03/02 05:00:01;;;;;;;37.03;23.08;;;;;;;1.74;82.66;102292.06;5073827;28;20039;-70
2022/03/02 05:02:26;;;;;;;38.22;23.90;;;;;;;1.72;84.57;102304.13;5073785;28;20028;-68
2022/03/02 05:04:52;;;;;;;38.55;24.60;;;;;;;1.70;86.27;102299.59;5073445;28;20039;-68
2022/03/02 05:07:17;;;;;;;37.72;24.13;;;;;;;1.69;85.83;102306.53;5073687;28;20052;-69
2022/03/02 05:09:43;;;;;;;37.15;23.55;;;;;;;1.69;87.72;102303.00;5073676;28;20064;-68
2022/03/02 05:12:09;;;;;;;37.22;23.60;;;;;;;1.64;86.31;102297.50;5073534;28;20112;-68
2022/03/02 05:14:35;;;;;;;36.20;23.73;;;;;;;1.62;87.33;102301.72;5073670;28;20519;-68
2022/03/02 05:17:02;;;;;;;37.40;23.42;;;;;;;1.54;85.91;102298.63;5073343;28;20067;-68
2022/03/02 05:19:27;;;;;;;36.90;24.48;;;;;;;1.51;85.63;102303.63;5073144;28;20471;-68
2022/03/02 05:21:52;;;;;;;37.22;24.63;;;;;;;1.52;87.34;102291.50;5073472;28;20039;-68
2022/03/02 05:24:18;;;;;;;38.75;24.52;;;;;;;1.44;86.12;102295.31;5073580;28;20086;-68
2022/03/02 05:26:43;;;;;;;37.97;24.08;;;;;;;1.41;85.98;102293.41;5069622;28;20027;-68
2022/03/02 05:29:09;;;;;;;36.40;22.70;;;;;;;1.42;85.54;102289.13;5073186;28;20107;-68
2022/03/02 05:31:34;;;;;;;38.45;24.65;;;;;;;1.42;84.80;102289.13;5073161;28;20020;-69
2022/03/02 05:34:00;;;;;;;38.20;23.23;;;;;;;1.42;84.66;102287.41;5072999;28;20021;-68
2022/03/02 05:36:26;;;;;;;36.53;22.88;;;;;;;1.43;83.26;102288.28;5073388;28;20020;-68
2022/03/02 05:38:52;;;;;;;36.20;23.08;;;;;;;1.42;84.05;102279.59;5073105;28;20376;-68
2022/03/02 05:41:18;;;;;;;36.00;22.58;;;;;;;1.46;84.31;102284.19;5072747;28;20074;-68
2022/03/02 05:43:43;;;;;;;35.40;22.52;;;;;;;1.47;82.29;102277.25;5073115;28;20028;-69
2022/03/02 05:46:09;;;;;;;36.90;22.38;;;;;;;1.50;81.27;102280.06;5072574;28;20029;-69
2022/03/02 05:48:35;;;;;;;36.78;22.50;;;;;;;1.54;80.76;102283.00;5073066;28;20151;-69
2022/03/02 05:51:01;;;;;;;35.97;22.58;;;;;;;1.55;81.67;102281.28;5072847;28;20031;-69
2022/03/02 05:53:26;;;;;;;37.33;23.27;;;;;;;1.49;81.82;102287.00;5072474;28;20056;-69
2022/03/02 05:55:52;;;;;;;36.10;23.15;;;;;;;1.52;84.43;102283.69;5073033;28;20481;-69
2022/03/02 05:58:17;;;;;;;37.33;23.40;;;;;;;1.47;84.32;102286.00;5073195;28;20361;-68
2022/03/02 06:00:42;;;;;;;36.53;22.15;;;;;;;1.42;84.21;102282.19;5072683;28;20016;-69
2022/03/02 06:03:08;;;;;;;36.78;23.20;;;;;;;1.43;86.04;102286.59;5073122;28;20427;-69
2022/03/02 06:05:34;;;;;;;34.78;22.05;;;;;;;1.42;85.95;102283.91;5072774;28;20032;-70
2022/03/02 06:07:59;;;;;;;35.78;22.80;;;;;;;1.34;85.46;102293.81;5072504;28;20028;-69
2022/03/02 06:10:25;;;;;;;37.63;22.80;;;;;;;1.30;84.46;102289.22;5072666;28;20020;-69
2022/03/02 06:12:51;;;;;;;36.75;20.98;;;;;;;1.30;84.60;102290.13;5072558;28;20027;-69
2022/03/02 06:15:16;;;;;;;34.35;21.95;;;;;;;1.25;84.02;102288.91;5072538;28;20025;-69
2022/03/02 06:17:42;;;;;;;35.45;22.25;;;;;;;1.26;84.45;102288.09;5072935;28;20521;-69
2022/03/02 06:20:08;;;;;;;35.60;22.45;;;;;;;1.24;84.01;102292.34;5072647;28;20031;-69
2022/03/02 06:22:33;;;;;;;36.35;22.20;;;;;;;1.24;84.36;102294.00;5072332;28;20052;-68
2022/03/02 06:24:59;;;;;;;35.95;22.40;;;;;;;1.22;84.28;102293.91;5072430;28;20115;-69
2022/03/02 06:27:24;;;;;;;35.05;22.00;;;;;;;1.21;83.83;102298.25;5072368;28;20020;-69
2022/03/02 06:29:49;;;;;;;35.25;21.88;;;;;;;1.18;84.28;102291.91;5072783;28;20028;-69
2022/03/02 06:32:15;;;;;;;36.88;21.80;;;;;;;1.15;83.82;102292.63;5072337;28;20021;-68
2022/03/02 06:34:42;;;;;;;36.05;22.60;;;;;;;1.15;84.29;102295.25;5072400;28;20029;-69
2022/03/02 06:37:07;;;;;;;36.50;21.90;;;;;;;1.19;84.16;102298.94;5072378;28;20021;-69
2022/03/02 06:39:33;;;;;;;36.17;22.42;;;;;;;1.11;82.91;102294.94;5072376;28;20028;-69
2022/03/02 06:42:33;;;;;;;34.88;21.98;;;;;;;1.13;83.17;102298.53;5072298;28;20197;-69
2022/03/02 06:45:10;;;;;;;36.17;21.83;;;;;;;1.10;83.14;102300.94;5071680;28;20024;-69
2022/03/02 06:47:51;;;;;;;35.78;22.45;;;;;;;1.17;84.00;102300.53;5066840;28;20028;-69
2022/03/02 06:50:23;;;;;;;37.08;21.55;;;;;;;1.17;84.63;102306.66;5068887;28;20043;-69
2022/03/02 06:52:53;;;;;;;35.65;22.38;;;;;;;1.14;84.20;102303.84;5068550;28;20021;-70
2022/03/02 06:55:18;;;;;;;36.28;22.50;;;;;;;1.17;83.65;102313.56;5070601;28;20127;-70
2022/03/02 06:57:51;;;;;;;37.85;22.75;;;;;;;1.21;83.98;102316.47;5072820;28;20069;-69
2022/03/02 07:00:17;;;;;;;;;;;;;;;1.26;83.60;102306.34;5071485;28;20024;-69
2022/03/02 07:03:04;;;;;;;34.75;21.38;;;;;;;1.29;83.12;102311.75;5074923;28;19912;-69
2022/03/02 07:05:30;;;;;;;34.78;22.40;;;;;;;1.32;82.04;102305.84;5073086;28;20044;-69
2022/03/02 07:07:58;;;;;;;34.78;21.55;;;;;;;1.35;81.87;102312.16;5074589;28;20020;-69
2022/03/02 07:10:24;;;;;;;35.63;22.13;;;;;;;1.39;82.83;102316.75;5074228;28;20078;-69
2022/03/02 07:12:50;;;;;;;35.20;22.33;;;;;;;1.38;82.84;102317.59;5071492;28;20421;-69
2022/03/02 07:15:15;;;;;;;34.50;21.75;;;;;;;1.38;81.67;102306.25;5074071;28;20017;-69
2022/03/02 07:17:40;;;;;;;33.80;21.92;;;;;;;1.44;80.13;102311.84;5074397;28;20024;-70
2022/03/02 07:20:09;;;;;;;35.88;22.45;;;;;;;1.47;81.09;102311.16;5074547;28;20020;-69
2022/03/02 07:22:39;;;;;;;36.33;22.60;;;;;;;1.62;82.63;102317.38;5074015;28;20052;-69
2022/03/02 07:25:11;;;;;;;34.97;21.90;;;;;;;1.69;81.18;102322.16;5073632;28;20033;-69
2022/03/02 07:27:38;;;;;;;35.13;22.00;;;;;;;1.82;81.37;102326.47;5073147;28;20475;-70
2022/03/02 07:30:05;;;;;;;36.25;22.95;;;;;;;1.95;81.22;102322.91;5074321;28;20028;-70
2022/03/02 07:32:32;;;;;;;35.70;22.48;;;;;;;2.09;79.91;102324.69;5072677;28;20089;-69
2022/03/02 07:35:01;;;;;;;36.25;22.38;;;;;;;2.20;77.54;102320.16;5073589;28;20024;-70
2022/03/02 07:37:28;;;;;;;34.10;20.85;;;;;;;2.35;76.66;102319.28;5073413;28;20082;-69
2022/03/02 07:39:54;;;;;;;33.08;20.50;;;;;;;2.46;75.62;102313.00;5073986;28;20031;-70
2022/03/02 07:42:19;;;;;;;33.33;21.23;;;;;;;2.54;75.22;102313.47;5073710;28;20024;-72
2022/03/02 07:44:46;;;;;;;33.53;20.95;;;;;;;2.59;73.49;102310.34;5074308;28;20029;-72
2022/03/02 07:47:12;;;;;;;33.55;20.35;;;;;;;2.60;72.08;102309.50;5073452;28;20031;-72
2022/03/02 07:49:37;;;;;;;33.20;20.88;;;;;;;2.65;71.58;102309.81;5073380;28;20032;-71
2022/03/02 07:52:05;;;;;;;36.45;21.75;;;;;;;2.70;71.69;102305.75;5073689;28;20486;-72
2022/03/02 07:54:35;;;;;;;35.92;22.52;;;;;;;2.83;71.35;102298.66;5073413;28;20052;-72
2022/03/02 07:57:01;;;;;;;35.28;22.33;;;;;;;2.88;71.09;102295.47;5073110;28;20098;-71
2022/03/02 07:59:33;;;;;;;35.25;21.05;;;;;;;3.06;70.02;102302.59;5071236;28;20033;-72
2022/03/02 08:01:59;;;;;;;36.28;22.23;;;;;;;3.21;70.67;102297.38;5072131;28;20024;-72
2022/03/02 08:04:27;;;;;;;34.88;20.90;;;;;;;3.38;68.10;102296.63;5073258;28;20034;-71
2022/03/02 08:06:53;;;;;;;35.95;20.83;;;;;;;3.60;67.87;102293.50;5072038;28;20037;-71
2022/03/02 08:09:18;;;;;;;33.17;20.58;;;;;;;3.71;66.78;102291.47;5073056;28;20064;-72
2022/03/02 08:11:44;;;;;;;33.83;20.92;;;;;;;3.87;65.97;102294.94;5073148;28;20071;-72
2022/03/02 08:14:09;;;;;;;32.90;19.85;;;;;;;3.98;64.22;102291.19;5072767;28;20063;-73
2022/03/02 08:16:35;;;;;;;34.42;20.40;;;;;;;4.13;64.03;102292.00;5072592;28;20013;-72
2022/03/02 08:19:02;;;;;;;32.58;19.63;;;;;;;4.30;62.39;102292.03;5072804;28;20024;-71
2022/03/02 08:21:33;;;;;;;34.40;19.50;;;;;;;4.49;62.62;102292.16;5070443;28;20024;-73
2022/03/02 08:24:03;;;;;;;31.50;20.08;;;;;;;4.62;62.44;102295.44;5072681;28;20415;-71
2022/03/02 08:26:32;;;;;;;31.75;19.88;;;;;;;4.80;60.97;102291.13;5072280;28;20028;-71
2022/03/02 08:29:02;;;;;;;32.50;18.67;;;;;;;4.98;60.29;102290.25;5072994;28;20028;-71
2022/03/02 08:31:29;;;;;;;32.38;19.30;;;;;;;5.09;59.42;102298.66;5071305;28;20030;-72
2022/03/02 08:33:55;;;;;;;33.05;19.85;;;;;;;5.22;59.45;102290.59;5072070;28;20032;-72
2022/03/02 08:36:23;;;;;;;30.33;18.63;;;;;;;5.37;58.61;102287.81;5072815;28;20044;-73
2022/03/02 08:38:50;;;;;;;31.63;19.48;;;;;;;5.39;58.91;102294.03;5071581;28;20031;-72
2022/03/02 08:41:17;;;;;;;30.38;19.10;;;;;;;5.45;58.70;102291.72;5072533;28;20432;-71
2022/03/02 08:43:44;;;;;;;32.05;19.00;;;;;;;5.58;57.84;102290.59;5072472;28;20032;-72
2022/03/02 08:46:09;;;;;;;30.65;18.77;;;;;;;5.72;56.10;102279.03;5072636;28;20379;-72
2022/03/02 08:48:35;;;;;;;30.20;18.58;;;;;;;5.74;57.66;102279.09;5072292;28;20025;-72
2022/03/02 08:51:01;;;;;;;29.10;17.77;;;;;;;5.91;54.66;102286.03;5072540;28;20069;-70
2022/03/02 08:53:27;;;;;;;31.45;18.92;;;;;;;6.10;54.68;102279.00;5072112;28;20075;-70
2022/03/02 08:55:55;;;;;;;30.50;18.67;;;;;;;6.23;54.58;102281.38;5072397;28;20149;-70
2022/03/02 08:58:22;;;;;;;29.95;17.65;;;;;;;6.41;53.28;102285.66;5072678;28;20025;-70
2022/03/02 09:00:51;;;;;;;29.65;17.83;;;;;;;6.62;52.90;102278.69;5072383;28;20028;-70
2022/03/02 09:03:17;;;;;;;29.52;17.45;;;;;;;6.79;51.11;102274.19;5073619;28;20032;-69
2022/03/02 09:05:43;;;;;;;29.52;17.23;;;;;;;7.09;51.64;102270.13;5073505;28;20028;-69
2022/03/02 09:08:08;;;;;;;30.02;17.25;;;;;;;7.25;49.77;102272.56;5073639;28;20110;-70
2022/03/02 09:10:35;;;;;;;29.50;18.08;;;;;;;7.44;48.10;102271.59;5073424;28;20497;-70
2022/03/02 09:13:02;;;;;;;30.75;16.50;;;;;;;7.58;48.21;102269.47;5073491;28;20048;-70
2022/03/02 09:15:28;;;;;;;28.83;17.48;;;;;;;7.70;47.22;102265.53;5073614;28;20036;-70
2022/03/02 09:17:53;;;;;;;29.45;16.80;;;;;;;7.78;47.79;102265.00;5073234;28;20549;-69
2022/03/02 09:20:19;;;;;;;29.35;16.77;;;;;;;7.84;46.65;102272.25;5073281;28;20071;-70
2022/03/02 09:22:45;;;;;;;31.25;17.38;;;;;;;7.85;47.82;102269.66;5073228;28;20017;-70
2022/03/02 09:25:10;;;;;;;29.65;17.40;;;;;;;7.85;48.27;102261.75;5072891;28;20039;-70
2022/03/02 09:27:36;;;;;;;29.45;17.42;;;;;;;7.98;48.76;102265.75;5073322;28;20070;-69
2022/03/02 09:30:06;;;;;;;28.95;17.30;;;;;;;8.33;47.23;102274.06;5072961;28;20040;-70
2022/03/02 09:32:32;;;;;;;29.15;17.40;;;;;;;8.64;46.61;102267.28;5073055;28;20025;-70
2022/03/02 09:34:59;;;;;;;29.10;17.60;;;;;;;8.88;46.52;102263.69;5073262;28;20538;-69
2022/03/02 09:37:26;;;;;;;27.52;16.58;;;;;;;8.98;45.82;102263.16;5072876;28;20082;-70
2022/03/02 09:39:51;;;;;;;30.42;16.95;;;;;;;8.96;44.39;102261.34;5073050;28;20032;-70
2022/03/02 09:42:31;;;;;;;27.52;16.30;;;;;;;9.01;43.58;102259.72;5073089;28;20135;-70
2022/03/02 09:45:08;;;;;;;30.08;16.92;;;;;;;9.26;43.98;102256.13;5073145;28;20100;-70
2022/03/02 09:47:43;;;;;;;31.45;16.45;;;;;;;9.41;42.50;102246.09;5072816;28;20035;-70
2022/03/02 09:50:13;;;;;;;28.38;16.33;;;;;;;9.53;42.36;102244.69;5068831;28;20035;-70
2022/03/02 09:52:41;;;;;;;28.77;16.85;;;;;;;9.70;42.02;102246.09;5068914;28;20028;-70
2022/03/02 09:55:12;;;;;;;27.60;16.58;;;;;;;10.18;41.21;102231.63;5072627;28;20033;-69
2022/03/02 09:57:43;;;;;;;26.85;14.90;;;;;;;10.54;39.68;102238.81;5068718;28;20495;-70
2022/03/02 10:00:09;;;;;;;26.98;15.88;;;;;;;10.84;38.10;102229.00;5068813;28;20073;-69
2022/03/02 10:02:37;;;;;;;27.98;15.27;;;;;;;11.33;37.37;102238.13;5072834;28;20024;-69
2022/03/02 10:05:12;;;;;;;27.15;15.77;;;;;;;11.58;37.77;102228.97;5072913;28;20086;-71
2022/03/02 10:07:53;;;;;;;27.60;16.30;;;;;;;12.13;37.22;102236.31;5068679;28;20025;-69
2022/03/02 10:10:22;;;;;;;26.27;14.93;;;;;;;12.53;34.47;102240.63;5069932;28;20025;-69
2022/03/02 10:12:51;;;;;;;26.77;15.02;;;;;;;12.80;33.96;102231.41;5072428;28;20132;-70
2022/03/02 10:15:19;;;;;;;28.35;14.82;;;;;;;12.94;32.89;102242.22;5072989;28;20146;-69
2022/03/02 10:17:47;;;;;;;28.00;16.10;;;;;;;13.16;33.63;102239.94;5072423;28;20077;-69
2022/03/02 10:20:15;;;;;;;27.00;15.07;;;;;;;13.52;33.81;102242.28;5072668;28;20033;-70
2022/03/02 10:22:56;;;;;;;26.67;15.00;;;;;;;13.90;32.81;102243.66;5072790;28;20039;-69
2022/03/02 10:25:35;;;;;;;25.95;14.70;;;;;;;14.12;32.70;102240.41;5070363;28;20021;-70
2022/03/02 10:28:06;;;;;;;25.70;14.23;;;;;;;14.17;31.02;102240.47;5072443;28;20021;-69
2022/03/02 10:30:40;;;;;;;25.23;14.45;;;;;;;14.37;31.33;102229.13;5072308;28;20025;-69
2022/03/02 10:33:26;;;;;;;25.85;14.55;;;;;;;14.84;32.10;102231.41;5072761;28;20136;-70
2022/03/02 10:35:51;;;;;;;26.95;15.50;;;;;;;14.83;30.96;102234.94;5072136;28;20130;-69
2022/03/02 10:38:39;;;;;;;26.13;14.75;;;;;;;15.20;30.38;102229.91;5076017;28;20158;-69
2022/03/02 10:41:08;;;;;;;26.85;15.43;;;;;;;15.78;31.18;102226.72;5073664;28;20028;-69
2022/03/02 10:43:47;;;;;;;27.65;15.43;;;;;;;16.38;29.47;102224.28;5076493;28;20615;-69
2022/03/02 10:46:20;;;;;;;26.45;15.02;;;;;;;16.59;29.38;102222.53;5076443;28;20017;-69
2022/03/02 10:48:55;;;;;;;26.27;14.10;;;;;;;16.54;27.14;102224.28;5074999;28;20032;-70
2022/03/02 10:51:24;;;;;;;26.02;14.43;;;;;;;16.68;27.83;102227.84;5076149;28;20036;-68
2022/03/02 10:53:52;;;;;;;26.27;14.95;;;;;;;16.76;28.14;102222.53;5076060;28;20483;-68
2022/03/02 10:56:20;;;;;;;24.35;13.27;;;;;;;16.25;26.25;102217.13;5076352;28;20031;-68
2022/03/02 10:58:50;;;;;;;25.10;14.05;;;;;;;16.28;28.12;102225.13;5076047;28;20147;-68
2022/03/02 11:01:17;;;;;;;26.33;14.85;;;;;;;17.05;27.06;102227.00;5076096;28;20421;-68
2022/03/02 11:03:44;;;;;;;25.52;14.05;;;;;;;17.30;26.03;102214.53;5076019;28;20056;-68
2022/03/02 11:06:11;;;;;;;25.80;13.50;;;;;;;17.12;26.58;102206.53;5075826;28;20024;-68
2022/03/02 11:08:38;;;;;;;26.25;14.27;;;;;;;17.24;26.56;102211.84;5075749;28;20032;-68
2022/03/02 11:11:08;;;;;;;25.50;14.13;;;;;;;17.30;26.84;102200.25;5075886;28;20074;-68
2022/03/02 11:13:33;;;;;;;24.85;13.10;;;;;;;17.13;25.24;102206.53;5075816;28;20029;-68
2022/03/02 11:16:02;;;;;;;25.35;13.95;;;;;;;16.74;26.48;102206.50;5075624;28;20421;-68